Time;durP1;ratioP1;P1;durP2;ratioP2;P2;SDS_P1;SDS_P2;PMS_P1;PMS_P2;Temp;Humidity;BMP_temperature;BMP_pressure;BME280_temperature;BME280_humidity;BME280_pressure;Samples;Min_cycle;Max_cycle;Signal;HPM_P1;HPM_P2
2022/07/27 00:02:23;;;;;;;10.07;1.35;;;14.10;99.90;;;;;;4997042;28;20132;-45
2022/07/27 00:04:48;;;;;;;5.95;1.38;;;14.60;99.90;;;;;;4995335;28;20410;-44
2022/07/27 00:07:14;;;;;;;5.00;1.10;;;13.20;99.90;;;;;;4997681;28;20045;-44
2022/07/27 00:09:40;;;;;;;8.60;1.40;;;14.40;99.90;;;;;;4977586;28;20066;-43
2022/07/27 00:12:05;;;;;;;7.03;1.55;;;13.30;99.90;;;;;;4996439;28;20048;-45
2022/07/27 00:14:31;;;;;;;7.15;1.45;;;13.50;99.40;;;;;;4995665;28;20041;-43
2022/07/27 00:16:59;;;;;;;8.73;1.45;;;13.20;98.70;;;;;;4996498;28;20037;-44
2022/07/27 00:19:25;;;;;;;9.23;1.30;;;13.30;99.00;;;;;;4997512;28;20041;-44
2022/07/27 00:21:50;;;;;;;8.00;1.40;;;13.20;97.80;;;;;;4996204;28;20053;-45
2022/07/27 00:24:18;;;;;;;8.93;1.63;;;13.00;97.90;;;;;;4997667;28;20037;-46
2022/07/27 00:26:44;;;;;;;6.22;1.52;;;13.00;98.20;;;;;;4996052;28;20121;-43
2022/07/27 00:29:10;;;;;;;7.07;1.50;;;13.10;98.60;;;;;;4995699;28;20058;-46
2022/07/27 00:31:35;;;;;;;7.28;1.52;;;13.10;98.60;;;;;;4995644;28;20045;-43
2022/07/27 00:34:01;;;;;;;6.90;1.42;;;13.10;99.10;;;;;;4996343;28;20062;-44
2022/07/27 00:36:27;;;;;;;8.00;1.70;;;13.00;99.90;;;;;;4996226;28;20046;-44
2022/07/27 00:38:52;;;;;;;11.48;1.73;;;13.00;99.90;;;;;;4977909;28;20033;-45
2022/07/27 00:41:18;;;;;;;5.63;1.40;;;12.90;99.90;;;;;;4995178;28;20069;-45
2022/07/27 00:43:55;;;;;;;6.35;1.45;;;12.80;99.90;;;;;;4996453;28;20054;-44
2022/07/27 00:46:22;;;;;;;7.30;1.55;;;12.60;99.90;;;;;;4992116;28;20045;-44
2022/07/27 00:48:49;;;;;;;6.85;1.40;;;12.40;99.90;;;;;;4997720;28;20038;-44
2022/07/27 00:51:18;;;;;;;5.30;1.30;;;12.90;99.90;;;;;;4993524;28;20038;-43
2022/07/27 00:53:45;;;;;;;8.15;1.60;;;12.40;99.90;;;;;;4993979;28;20045;-46
2022/07/27 00:56:13;;;;;;;7.18;1.60;;;12.20;99.90;;;;;;4996984;28;20042;-43
2022/07/27 00:58:38;;;;;;;5.50;1.42;;;12.30;99.90;;;;;;4992265;28;20123;-45
2022/07/27 01:01:05;;;;;;;7.63;1.52;;;12.30;99.90;;;;;;4995773;28;20121;-44
2022/07/27 01:03:30;;;;;;;5.15;1.45;;;13.80;99.90;;;;;;4993473;28;20513;-45
2022/07/27 01:05:57;;;;;;;8.18;1.70;;;13.10;99.90;;;;;;4996476;28;20041;-47
2022/07/27 01:08:24;;;;;;;5.30;1.67;;;12.50;99.90;;;;;;4995580;28;20038;-49
2022/07/27 01:10:53;;;;;;;7.88;1.70;;;12.60;99.90;;;;;;4994082;28;20112;-45
2022/07/27 01:13:20;;;;;;;5.95;1.60;;;12.30;99.90;;;;;;4993692;28;20042;-47
2022/07/27 01:15:47;;;;;;;5.00;1.83;;;12.20;99.90;;;;;;4994710;28;20041;-45
2022/07/27 01:18:27;;;;;;;8.23;1.90;;;13.30;99.90;;;;;;4995883;28;20041;-44
2022/07/27 01:20:54;;;;;;;5.95;1.80;;;12.20;99.90;;;;;;4992525;28;20552;-44
2022/07/27 01:23:20;;;;;;;5.15;1.63;;;12.30;99.90;;;;;;4993434;28;20525;-43
2022/07/27 01:25:46;;;;;;;8.25;1.67;;;12.40;99.90;;;;;;4994322;28;20656;-45
2022/07/27 01:28:11;;;;;;;7.88;1.70;;;12.30;99.90;;;;;;4993067;28;20056;-46
2022/07/27 01:30:39;;;;;;;4.00;1.50;;;12.70;99.90;;;;;;4995078;28;20034;-47
2022/07/27 01:33:07;;;;;;;6.40;1.98;;;12.20;99.90;;;;;;4995386;28;20328;-44
2022/07/27 01:35:34;;;;;;;3.88;1.50;;;12.30;99.90;;;;;;4996199;28;20076;-46
2022/07/27 01:37:59;;;;;;;5.85;1.80;;;13.40;99.90;;;;;;4992538;28;20046;-48
2022/07/27 01:40:25;;;;;;;5.18;1.50;;;13.00;99.90;;;;;;4992684;28;20038;-43
2022/07/27 01:42:51;;;;;;;8.60;2.15;;;12.30;99.90;;;;;;4992851;28;20048;-46
2022/07/27 01:45:18;;;;;;;10.82;1.80;;;12.80;99.90;;;;;;4995155;28;20042;-44
2022/07/27 01:47:43;;;;;;;6.47;1.83;;;12.10;99.90;;;;;;4975476;28;20590;-45
2022/07/27 01:50:10;;;;;;;5.95;1.50;;;13.70;99.90;;;;;;4993401;28;20038;-49
2022/07/27 01:52:40;;;;;;;3.67;1.60;;;12.00;99.90;;;;;;4993239;28;20530;-44
2022/07/27 01:55:10;;;;;;;5.60;1.70;;;11.90;99.90;;;;;;4996707;28;20037;-47
2022/07/27 01:57:37;;;;;;;8.55;1.77;;;11.80;99.90;;;;;;4994233;28;20033;-47
2022/07/27 02:00:09;;;;;;;7.22;1.90;;;11.60;99.90;;;;;;4992492;28;20309;-48
2022/07/27 02:02:35;;;;;;;10.25;1.92;;;11.70;99.90;;;;;;4992803;28;20045;-48
2022/07/27 02:05:01;;;;;;;9.77;2.00;;;11.40;99.90;;;;;;4992383;28;20034;-43
2022/07/27 02:07:29;;;;;;;5.30;1.77;;;11.80;99.90;;;;;;4994596;28;20475;-47
2022/07/27 02:09:54;;;;;;;6.28;2.03;;;12.10;99.90;;;;;;4995240;28;20046;-46
2022/07/27 02:12:35;;;;;;;6.40;1.88;;;11.80;99.90;;;;;;4997291;28;20034;-44
2022/07/27 02:15:07;;;;;;;8.48;2.00;;;11.60;99.90;;;;;;4997056;28;20037;-43
2022/07/27 02:17:33;;;;;;;5.68;1.67;;;11.60;99.90;;;;;;4997965;28;20603;-49
2022/07/27 02:19:59;;;;;;;7.20;1.80;;;11.60;99.90;;;;;;5001742;28;20139;-46
2022/07/27 02:22:27;;;;;;;7.40;1.67;;;11.40;99.90;;;;;;4996542;28;20534;-47
2022/07/27 02:24:53;;;;;;;7.13;1.98;;;11.40;99.90;;;;;;4996203;28;20038;-44
2022/07/27 02:27:18;;;;;;;4.18;1.60;;;11.40;99.90;;;;;;4997926;28;20057;-46
2022/07/27 02:29:44;;;;;;;5.78;2.00;;;13.10;99.90;;;;;;4996286;28;20057;-44
2022/07/27 02:32:10;;;;;;;7.72;1.75;;;11.20;99.90;;;;;;4999183;28;20098;-46
2022/07/27 02:34:35;;;;;;;8.35;2.10;;;11.40;99.90;;;;;;4996928;28;20466;-46
2022/07/27 02:37:03;;;;;;;9.68;1.95;;;11.60;99.90;;;;;;4993670;28;20056;-44
2022/07/27 02:39:29;;;;;;;10.07;2.63;;;11.40;99.90;;;;;;4998780;28;20037;-47
2022/07/27 02:41:54;;;;;;;6.05;1.90;;;11.30;99.90;;;;;;4996578;28;20821;-48
2022/07/27 02:44:20;;;;;;;5.60;2.17;;;11.40;99.90;;;;;;4996467;28;20034;-48
2022/07/27 02:46:46;;;;;;;7.78;2.20;;;12.10;99.90;;;;;;4998515;28;20457;-47
2022/07/27 02:49:12;;;;;;;6.28;2.13;;;12.80;99.90;;;;;;4998160;28;20148;-49
2022/07/27 02:51:41;;;;;;;6.88;2.88;;;11.40;99.90;;;;;;4999768;28;20176;-48
2022/07/27 02:54:06;;;;;;;8.23;2.00;;;13.40;99.90;;;;;;4996433;28;20045;-44
2022/07/27 02:56:32;;;;;;;6.45;2.28;;;11.60;99.90;;;;;;4996067;28;20036;-45
2022/07/27 02:58:58;;;;;;;6.88;2.28;;;11.60;99.90;;;;;;4996160;28;20091;-45
2022/07/27 03:01:23;;;;;;;6.97;2.53;;;12.20;99.90;;;;;;4996885;28;20040;-45
2022/07/27 03:03:49;;;;;;;6.80;2.10;;;11.50;99.90;;;;;;4999475;28;20037;-45
2022/07/27 03:06:15;;;;;;;10.48;2.20;;;11.70;99.90;;;;;;4997824;28;20033;-44
2022/07/27 03:08:40;;;;;;;12.57;3.00;;;11.60;99.90;;;;;;4996087;28;20066;-46
2022/07/27 03:11:07;;;;;;;7.95;2.35;;;12.10;99.90;;;;;;4996709;28;20305;-46
2022/07/27 03:13:35;;;;;;;9.60;2.30;;;11.90;99.90;;;;;;4995557;28;20052;-45
2022/07/27 03:16:00;;;;;;;7.45;2.22;;;11.40;99.90;;;;;;4980869;28;20050;-43
2022/07/27 03:18:26;;;;;;;9.23;2.83;;;11.80;99.90;;;;;;4978412;28;20103;-44
2022/07/27 03:20:52;;;;;;;9.13;2.35;;;11.70;99.90;;;;;;4997881;28;20045;-45
2022/07/27 03:23:18;;;;;;;7.78;2.00;;;11.80;99.90;;;;;;4994912;28;20041;-46
2022/07/27 03:25:44;;;;;;;10.00;2.33;;;11.60;99.90;;;;;;4977546;28;20576;-44
2022/07/27 03:28:09;;;;;;;6.45;2.30;;;11.80;99.90;;;;;;4994851;28;20053;-45
2022/07/27 03:30:35;;;;;;;9.38;2.42;;;12.00;99.90;;;;;;4995757;28;20037;-44
2022/07/27 03:33:02;;;;;;;5.47;2.15;;;13.40;99.90;;;;;;4995181;28;20103;-43
2022/07/27 03:35:28;;;;;;;9.70;2.33;;;11.60;99.90;;;;;;4977415;28;20045;-47
2022/07/27 03:37:54;;;;;;;9.90;2.75;;;11.80;99.90;;;;;;4996785;28;20523;-43
2022/07/27 03:40:21;;;;;;;7.03;2.13;;;12.20;99.90;;;;;;4994188;28;20045;-46
2022/07/27 03:42:47;;;;;;;5.38;2.65;;;11.80;99.90;;;;;;4994896;28;20379;-44
2022/07/27 03:45:13;;;;;;;7.30;2.45;;;12.10;99.90;;;;;;4996603;28;20083;-44
2022/07/27 03:47:40;;;;;;;11.52;2.67;;;12.30;99.90;;;;;;4995327;28;20042;-43
2022/07/27 03:50:06;;;;;;;7.30;2.10;;;12.00;99.90;;;;;;4992912;28;20041;-45
2022/07/27 03:52:32;;;;;;;7.25;2.25;;;12.00;99.90;;;;;;4995126;28;20696;-46
2022/07/27 03:55:00;;;;;;;7.78;2.25;;;12.10;99.90;;;;;;4995683;28;20038;-43
2022/07/27 03:57:26;;;;;;;5.72;2.17;;;12.00;99.90;;;;;;4995904;28;20052;-44
2022/07/27 03:59:51;;;;;;;8.88;2.50;;;12.50;99.90;;;;;;4995748;28;20042;-44
2022/07/27 04:02:19;;;;;;;8.32;2.58;;;12.10;99.90;;;;;;4999450;28;20411;-45
2022/07/27 04:04:44;;;;;;;9.85;2.42;;;12.00;99.90;;;;;;4995373;28;20049;-44
2022/07/27 04:07:10;;;;;;;7.35;2.30;;;12.00;99.90;;;;;;4995041;28;20034;-44
2022/07/27 04:09:36;;;;;;;6.13;2.45;;;12.10;99.90;;;;;;4994213;28;20038;-43
2022/07/27 04:12:02;;;;;;;7.85;2.50;;;12.00;99.90;;;;;;4997853;28;20717;-44
2022/07/27 04:14:29;;;;;;;6.05;2.28;;;12.10;99.90;;;;;;4994110;28;20413;-43
2022/07/27 04:16:55;;;;;;;13.25;2.33;;;12.00;99.90;;;;;;4995283;28;20061;-43
2022/07/27 04:19:20;;;;;;;9.65;2.65;;;12.40;99.90;;;;;;4997058;28;20038;-45
2022/07/27 04:21:46;;;;;;;14.85;2.90;;;12.80;99.90;;;;;;4998003;28;20042;-47
2022/07/27 04:24:12;;;;;;;12.98;2.28;;;12.50;99.90;;;;;;4994322;28;20038;-44
2022/07/27 04:26:38;;;;;;;8.70;2.47;;;12.30;99.90;;;;;;4994788;28;20525;-47
2022/07/27 04:29:05;;;;;;;7.88;2.38;;;13.90;99.90;;;;;;4996599;28;20523;-42
2022/07/27 04:31:31;;;;;;;9.77;2.17;;;12.60;99.90;;;;;;4995779;28;20038;-44
2022/07/27 04:33:57;;;;;;;10.57;2.45;;;14.20;99.90;;;;;;4993582;28;20136;-43
2022/07/27 04:36:24;;;;;;;12.15;1.60;;;12.90;99.90;;;;;;4994791;28;20045;-47
2022/07/27 04:38:50;;;;;;;8.00;1.70;;;13.00;99.90;;;;;;4995479;28;20696;-46
2022/07/27 04:41:16;;;;;;;7.93;1.80;;;13.80;99.90;;;;;;4995168;28;20038;-49
2022/07/27 04:43:42;;;;;;;7.93;1.63;;;13.20;99.90;;;;;;4993823;28;20133;-44
2022/07/27 04:46:07;;;;;;;14.27;2.08;;;13.30;99.90;;;;;;4996344;28;20482;-45
2022/07/27 04:48:34;;;;;;;7.75;2.08;;;14.00;99.90;;;;;;4995183;28;20065;-45
2022/07/27 04:51:03;;;;;;;6.68;1.50;;;14.40;99.90;;;;;;4994083;28;20041;-44
2022/07/27 04:53:28;;;;;;;5.10;1.50;;;15.10;99.90;;;;;;4977671;28;20049;-44
2022/07/27 04:55:54;;;;;;;7.75;1.73;;;13.40;99.90;;;;;;4994088;28;20067;-44
2022/07/27 04:58:21;;;;;;;7.53;1.25;;;14.50;99.90;;;;;;4995187;28;20037;-48
2022/07/27 05:00:47;;;;;;;5.43;1.38;;;13.40;99.90;;;;;;4996118;28;20033;-43
2022/07/27 05:03:13;;;;;;;5.35;1.20;;;14.30;99.90;;;;;;4993293;28;20065;-43
2022/07/27 05:05:39;;;;;;;7.15;1.40;;;13.20;99.90;;;;;;4996387;28;20042;-46
2022/07/27 05:08:05;;;;;;;3.40;1.02;;;14.10;99.90;;;;;;4997058;28;20099;-43
2022/07/27 05:10:31;;;;;;;4.97;1.13;;;13.50;99.90;;;;;;4994428;28;20054;-45
2022/07/27 05:12:57;;;;;;;7.20;1.42;;;13.40;99.90;;;;;;4993339;28;20049;-44
2022/07/27 05:15:22;;;;;;;8.10;1.52;;;13.30;99.90;;;;;;4994561;28;20042;-47
2022/07/27 05:17:50;;;;;;;8.20;1.45;;;13.40;99.90;;;;;;4995066;28;20480;-47
2022/07/27 05:20:16;;;;;;;6.18;1.30;;;13.30;99.90;;;;;;4997297;28;20347;-48
2022/07/27 05:22:42;;;;;;;6.95;1.33;;;14.10;99.90;;;;;;4993042;28;20265;-44
2022/07/27 05:25:08;;;;;;;4.47;1.10;;;13.40;99.90;;;;;;4994201;28;20034;-46
2022/07/27 05:27:36;;;;;;;5.75;1.33;;;13.50;99.90;;;;;;4996683;28;20048;-44
2022/07/27 05:30:03;;;;;;;5.95;1.23;;;14.40;99.90;;;;;;4994437;28;20057;-44
2022/07/27 05:32:32;;;;;;;4.47;1.35;;;13.50;99.90;;;;;;4993739;28;20932;-43
2022/07/27 05:34:57;;;;;;;6.43;1.17;;;13.20;99.90;;;;;;4994667;28;20108;-43
2022/07/27 05:37:23;;;;;;;9.50;1.63;;;13.40;99.90;;;;;;4993393;28;20045;-45
2022/07/27 05:39:49;;;;;;;3.78;1.40;;;13.60;99.90;;;;;;4995810;28;20033;-46
2022/07/27 05:42:15;;;;;;;4.43;1.40;;;13.60;99.90;;;;;;4996426;28;20049;-46
2022/07/27 05:44:40;;;;;;;7.20;1.52;;;15.60;99.90;;;;;;4994769;28;20387;-44
2022/07/27 05:47:06;;;;;;;7.65;1.40;;;13.70;99.90;;;;;;4994662;28;20068;-44
2022/07/27 05:49:32;;;;;;;6.38;1.40;;;13.70;99.90;;;;;;4977039;28;20042;-44
2022/07/27 05:51:57;;;;;;;6.07;1.70;;;14.90;99.90;;;;;;4994053;28;20049;-45
2022/07/27 05:54:25;;;;;;;6.97;1.70;;;13.80;99.90;;;;;;4992594;28;20045;-46
2022/07/27 05:56:51;;;;;;;8.15;1.42;;;13.90;99.90;;;;;;4994767;28;20073;-44
2022/07/27 05:59:17;;;;;;;8.85;2.00;;;13.90;99.90;;;;;;4995015;28;20137;-43
2022/07/27 06:01:43;;;;;;;7.38;1.40;;;16.00;99.90;;;;;;4993416;28;20041;-44
2022/07/27 06:04:10;;;;;;;9.73;1.50;;;14.00;99.90;;;;;;4992043;28;20096;-45
2022/07/27 06:09:22;;;;;;;8.73;1.70;;;14.30;99.90;;;;;;4994014;28;20045;-45
2022/07/27 06:11:48;;;;;;;4.85;1.30;;;15.10;99.90;;;;;;4993466;28;20041;-44
2022/07/27 06:14:13;;;;;;;9.45;1.70;;;14.70;99.90;;;;;;4996065;28;20050;-46
2022/07/27 06:16:39;;;;;;;9.68;2.38;;;14.50;99.90;;;;;;4994115;28;20848;-45
2022/07/27 06:19:05;;;;;;;6.78;1.38;;;15.40;99.90;;;;;;4993207;28;20165;-46
2022/07/27 06:21:32;;;;;;;5.45;1.48;;;16.40;99.90;;;;;;4992636;28;20052;-43
2022/07/27 06:23:58;;;;;;;6.72;1.42;;;14.90;99.90;;;;;;4992260;28;20137;-43
2022/07/27 06:26:24;;;;;;;7.53;1.40;;;15.70;99.90;;;;;;4992678;28;20773;-44
2022/07/27 06:28:51;;;;;;;8.02;1.33;;;15.20;99.90;;;;;;4996045;28;20050;-43
2022/07/27 06:31:17;;;;;;;5.97;1.40;;;15.30;99.90;;;;;;4991962;28;20703;-49
2022/07/27 06:33:43;;;;;;;6.45;1.38;;;15.60;99.90;;;;;;4974778;28;20057;-46
2022/07/27 06:36:10;;;;;;;7.60;1.48;;;16.50;99.90;;;;;;4993584;28;20079;-45
2022/07/27 06:38:36;;;;;;;9.35;1.40;;;15.50;99.90;;;;;;4993023;28;20042;-45
2022/07/27 06:41:02;;;;;;;6.53;1.13;;;15.90;99.90;;;;;;4996651;28;20038;-44
2022/07/27 06:43:31;;;;;;;8.68;1.73;;;16.20;99.90;;;;;;4992986;28;20104;-47
2022/07/27 06:45:58;;;;;;;6.57;1.27;;;16.40;97.40;;;;;;4993039;28;20042;-44
2022/07/27 06:48:23;;;;;;;7.85;1.50;;;16.50;92.10;;;;;;4994781;28;20049;-43
2022/07/27 06:50:50;;;;;;;7.47;1.23;;;16.60;92.80;;;;;;4994139;28;20042;-44
2022/07/27 06:53:19;;;;;;;7.22;1.60;;;16.80;84.50;;;;;;4992285;28;20077;-46
2022/07/27 06:55:45;;;;;;;7.05;1.52;;;17.10;84.80;;;;;;4992606;28;20034;-44
2022/07/27 06:58:11;;;;;;;5.93;1.67;;;18.40;75.30;;;;;;4993348;28;20049;-45
2022/07/27 07:00:38;;;;;;;7.22;0.98;;;19.90;65.40;;;;;;4993983;28;20045;-46
2022/07/27 07:03:05;;;;;;;7.50;1.27;;;18.10;53.60;;;;;;4996359;28;20042;-44
2022/07/27 07:05:39;;;;;;;6.60;1.48;;;19.00;23.40;;;;;;4999402;28;20045;-44
2022/07/27 07:08:10;;;;;;;7.57;1.30;;;20.20;1.00;;;;;;4998821;28;20058;-44
2022/07/27 07:10:41;;;;;;;9.13;1.42;;;22.80;1.00;;;;;;4977478;28;20077;-44
2022/07/27 07:13:07;;;;;;;7.20;1.10;;;22.50;99.90;;;;;;4994258;28;20034;-43
2022/07/27 07:15:36;;;;;;;7.60;1.38;;;23.30;99.90;;;;;;4977800;28;20049;-45
2022/07/27 07:18:05;;;;;;;10.52;1.40;;;24.00;61.10;;;;;;4997027;28;20048;-44
2022/07/27 07:20:32;;;;;;;6.63;1.45;;;24.50;1.00;;;;;;4995224;28;21548;-46
2022/07/27 07:22:57;;;;;;;5.53;0.90;;;25.50;1.00;;;;;;4996143;28;20041;-45
2022/07/27 07:25:23;;;;;;;6.72;1.13;;;26.00;1.00;;;;;;4997463;28;20045;-46
2022/07/27 07:27:50;;;;;;;8.25;1.10;;;26.20;1.00;;;;;;4995348;28;20041;-45
2022/07/27 07:30:17;;;;;;;8.13;2.15;;;26.40;99.90;;;;;;4995946;28;20056;-47
2022/07/27 07:32:43;;;;;;;8.30;1.60;;;26.90;99.90;;;;;;4996616;28;20042;-45
2022/07/27 07:35:10;;;;;;;9.25;1.65;;;25.70;99.90;;;;;;4995247;28;20395;-47
2022/07/27 07:37:36;;;;;;;7.45;1.60;;;23.50;99.90;;;;;;4995964;28;20042;-44
2022/07/27 07:40:03;;;;;;;15.43;3.75;;;22.10;1.00;;;;;;4995962;28;20046;-46
2022/07/27 07:42:29;;;;;;;7.18;1.40;;;20.60;99.90;;;;;;4997402;28;20049;-44
2022/07/27 07:44:54;;;;;;;5.95;1.48;;;20.20;99.90;;;;;;4978229;28;20065;-44
2022/07/27 07:47:20;;;;;;;5.53;0.90;;;19.30;99.90;;;;;;4996100;28;20774;-44
2022/07/27 07:49:46;;;;;;;7.22;1.20;;;18.20;1.00;;;;;;4995992;28;20897;-48
2022/07/27 07:52:12;;;;;;;6.80;1.50;;;17.90;1.00;;;;;;4996985;28;20386;-44
2022/07/27 07:54:37;;;;;;;6.82;1.50;;;17.60;1.00;;;;;;4995290;28;20042;-45
2022/07/27 07:57:03;;;;;;;7.50;1.33;;;17.20;1.00;;;;;;4997394;28;20037;-44
2022/07/27 07:59:29;;;;;;;5.10;1.30;;;16.90;1.00;;;;;;4996787;28;20038;-45
2022/07/27 08:01:54;;;;;;;5.32;1.17;;;17.80;1.00;;;;;;4978478;28;20041;-44
2022/07/27 08:04:22;;;;;;;5.57;1.15;;;18.10;1.00;;;;;;4995841;28;20034;-48
2022/07/27 08:06:48;;;;;;;7.22;1.48;;;16.60;3.80;;;;;;4996128;28;20050;-44
2022/07/27 08:09:16;;;;;;;10.10;1.50;;;17.20;3.90;;;;;;4996166;28;20034;-44
2022/07/27 08:11:44;;;;;;;4.85;1.10;;;17.70;1.00;;;;;;4997341;28;20042;-45
2022/07/27 08:14:09;;;;;;;5.60;0.90;;;16.90;1.00;;;;;;4994837;28;20050;-44
2022/07/27 08:16:35;;;;;;;6.53;1.15;;;16.70;1.00;;;;;;4996043;28;20037;-43
2022/07/27 08:19:01;;;;;;;4.88;1.10;;;16.80;1.00;;;;;;4996370;28;20059;-47
2022/07/27 08:21:27;;;;;;;8.15;1.42;;;16.60;1.00;;;;;;4996164;28;20046;-44
2022/07/27 08:23:53;;;;;;;7.53;1.20;;;18.50;1.00;;;;;;4994670;28;20037;-46
2022/07/27 08:26:20;;;;;;;6.22;1.40;;;18.60;1.00;;;;;;4994279;28;20038;-45
2022/07/27 08:28:48;;;;;;;6.60;1.20;;;17.30;1.00;;;;;;4995644;28;21402;-44
2022/07/27 08:31:14;;;;;;;5.68;0.98;;;17.20;1.00;;;;;;4995435;28;20565;-44
2022/07/27 08:33:40;;;;;;;4.35;0.70;;;17.00;1.00;;;;;;4994112;28;20061;-44
2022/07/27 08:36:06;;;;;;;4.70;0.88;;;17.50;1.00;;;;;;4995070;28;20552;-45
2022/07/27 08:38:32;;;;;;;2.67;0.77;;;17.30;1.00;;;;;;4995254;28;20044;-43
2022/07/27 08:41:01;;;;;;;3.80;0.65;;;19.70;1.00;;;;;;4994651;28;20402;-43
2022/07/27 08:43:30;;;;;;;3.78;0.65;;;17.70;1.00;;;;;;4993305;28;20046;-44
2022/07/27 08:45:58;;;;;;;5.88;1.17;;;17.80;1.00;;;;;;4994701;28;20034;-44
2022/07/27 08:48:25;;;;;;;2.90;0.75;;;19.40;1.00;;;;;;4995495;28;20046;-44
2022/07/27 08:50:51;;;;;;;2.50;0.98;;;18.70;1.00;;;;;;4994590;28;20069;-44
2022/07/27 08:53:18;;;;;;;3.63;0.75;;;18.30;1.00;;;;;;4994276;28;20049;-44
2022/07/27 08:55:46;;;;;;;5.53;1.00;;;18.40;99.90;;;;;;4994866;28;20080;-45
2022/07/27 08:58:13;;;;;;;5.30;1.00;;;18.50;99.90;;;;;;4996498;28;20458;-44
2022/07/27 09:00:41;;;;;;;6.75;1.00;;;20.40;99.90;;;;;;4996572;28;20044;-44
2022/07/27 09:03:10;;;;;;;8.45;1.00;;;21.00;99.90;;;;;;4999564;28;20136;-45
2022/07/27 09:05:44;;;;;;;6.13;1.40;;;19.30;99.90;;;;;;4994272;28;20033;-45
2022/07/27 09:08:13;;;;;;;4.18;1.02;;;21.20;99.90;;;;;;4994094;28;20609;-47
2022/07/27 09:10:39;;;;;;;8.05;1.25;;;19.70;99.90;;;;;;4995243;28;20049;-44
2022/07/27 09:13:22;;;;;;;7.13;1.27;;;19.60;99.90;;;;;;4997227;28;20045;-45
2022/07/27 09:15:57;;;;;;;7.75;1.00;;;19.20;99.90;;;;;;4994530;28;20784;-43
2022/07/27 09:18:29;;;;;;;9.60;1.40;;;19.10;1.00;;;;;;4996670;28;20050;-43
2022/07/27 09:21:15;;;;;;;3.83;1.00;;;20.50;1.00;;;;;;4994398;28;21051;-45
2022/07/27 09:23:48;;;;;;;6.00;1.50;;;18.80;78.50;;;;;;4993839;28;20124;-43
2022/07/27 09:26:20;;;;;;;4.70;1.30;;;18.50;91.60;;;;;;4995921;28;20049;-47
2022/07/27 09:28:46;;;;;;;;;;;19.80;58.10;;;;;;4995286;28;20033;-44
2022/07/27 09:31:13;;;;;;;6.03;1.10;;;18.90;40.80;;;;;;4997934;28;20364;-46
2022/07/27 09:33:45;;;;;;;11.32;1.65;;;18.80;99.90;;;;;;4993271;28;20137;-44
2022/07/27 09:36:13;;;;;;;5.07;1.13;;;19.30;99.90;;;;;;4993912;28;20084;-44
2022/07/27 09:39:01;;;;;;;3.47;0.82;;;19.40;99.90;;;;;;4993826;28;20046;-44
2022/07/27 09:41:44;;;;;;;8.07;1.10;;;19.10;99.90;;;;;;4993587;28;20069;-44
2022/07/27 09:44:10;;;;;;;7.88;1.58;;;19.30;1.00;;;;;;4994344;28;20045;-44
2022/07/27 09:46:38;;;;;;;4.50;0.90;;;19.80;99.90;;;;;;4993236;28;20429;-48
2022/07/27 09:49:05;;;;;;;7.57;1.33;;;20.10;99.90;;;;;;4995509;28;20596;-45
2022/07/27 09:51:31;;;;;;;7.32;0.90;;;21.20;99.90;;;;;;4993700;28;20029;-44
2022/07/27 09:54:04;;;;;;;2.78;0.75;;;20.60;99.90;;;;;;4994085;28;20041;-49
2022/07/27 09:56:31;;;;;;;7.60;0.90;;;20.90;99.90;;;;;;4993177;28;20449;-45
2022/07/27 09:58:59;;;;;;;7.80;1.00;;;21.00;99.90;;;;;;4993280;28;20507;-47
2022/07/27 10:01:31;;;;;;;4.68;0.82;;;21.30;99.90;;;;;;4995698;28;20049;-48
2022/07/27 10:04:03;;;;;;;4.57;0.95;;;21.60;99.90;;;;;;4993782;28;20430;-43
2022/07/27 10:06:29;;;;;;;8.02;1.10;;;21.60;99.90;;;;;;4994153;28;20050;-44
2022/07/27 10:08:57;;;;;;;3.58;0.95;;;21.60;6.90;;;;;;4993270;28;20108;-44
2022/07/27 10:11:24;;;;;;;5.85;1.00;;;22.10;1.00;;;;;;4994540;28;20057;-44
2022/07/27 10:13:51;;;;;;;7.75;1.00;;;21.90;99.90;;;;;;4993083;28;20153;-48
2022/07/27 10:16:20;;;;;;;5.45;1.13;;;21.40;99.90;;;;;;4993580;28;20046;-43
2022/07/27 10:19:05;;;;;;;4.10;0.98;;;21.10;99.90;;;;;;4994804;28;20041;-44
2022/07/27 10:21:37;;;;;;;2.63;0.70;;;21.20;1.00;;;;;;4993248;28;20034;-47
2022/07/27 10:24:05;;;;;;;3.58;1.00;;;20.50;1.00;;;;;;4993555;28;20100;-44
2022/07/27 10:26:34;;;;;;;8.80;1.08;;;20.00;1.00;;;;;;4993121;28;20052;-48
2022/07/27 10:29:14;;;;;;;6.20;1.10;;;19.90;1.00;;;;;;4994065;28;20033;-44
2022/07/27 10:32:00;;;;;;;4.15;0.93;;;19.90;1.00;;;;;;4994467;28;20066;-43
2022/07/27 10:34:35;;;;;;;4.75;0.80;;;20.20;1.00;;;;;;4997163;28;20500;-44
2022/07/27 10:37:14;;;;;;;8.48;1.00;;;20.40;1.00;;;;;;5001067;28;20140;-44
2022/07/27 10:39:43;;;;;;;5.53;0.60;;;21.10;5.30;;;;;;4999291;28;20578;-45
2022/07/27 10:42:23;;;;;;;3.03;0.63;;;21.70;1.00;;;;;;4997698;28;20042;-48
2022/07/27 10:45:06;;;;;;;3.45;0.60;;;21.70;24.40;;;;;;4997147;28;20502;-48
2022/07/27 10:47:32;;;;;;;4.57;0.70;;;21.00;17.40;;;;;;4997697;28;20124;-44
2022/07/27 10:50:18;;;;;;;3.03;0.60;;;20.70;23.80;;;;;;4996779;28;20180;-49
2022/07/27 10:52:46;;;;;;;3.63;0.80;;;21.50;30.20;;;;;;4995999;28;20047;-44
2022/07/27 10:55:31;;;;;;;3.03;0.70;;;21.70;33.20;;;;;;4995985;28;20536;-46
2022/07/27 10:58:10;;;;;;;2.85;0.70;;;22.10;37.20;;;;;;4998281;28;20358;-44
2022/07/27 11:00:50;;;;;;;4.03;0.70;;;22.40;39.50;;;;;;4997264;28;20046;-45
2022/07/27 11:03:21;;;;;;;2.85;0.68;;;22.10;39.00;;;;;;4994985;28;20045;-44
2022/07/27 11:05:57;;;;;;;6.10;0.95;;;21.80;38.10;;;;;;4995868;28;20107;-48
2022/07/27 11:08:30;;;;;;;4.18;0.65;;;21.30;24.20;;;;;;4995789;28;20126;-45
2022/07/27 11:10:59;;;;;;;4.10;0.65;;;20.70;28.20;;;;;;4996003;28;20045;-47
2022/07/27 11:13:26;;;;;;;3.75;0.70;;;20.70;42.70;;;;;;4999014;28;20092;-44
2022/07/27 11:15:56;;;;;;;2.22;0.45;;;20.80;41.50;;;;;;4995909;28;20042;-45
2022/07/27 11:18:39;;;;;;;2.70;0.63;;;21.10;39.70;;;;;;4978541;28;20408;-45
2022/07/27 11:21:26;;;;;;;2.15;0.57;;;21.80;34.10;;;;;;4998820;28;20522;-45
2022/07/27 11:24:04;;;;;;;5.65;0.68;;;21.70;30.20;;;;;;4998847;28;20402;-46
2022/07/27 11:26:41;;;;;;;3.55;0.73;;;21.20;59.50;;;;;;4996425;28;20055;-44
2022/07/27 11:29:09;;;;;;;4.43;0.90;;;21.40;61.00;;;;;;4994849;28;20529;-46
2022/07/27 11:31:36;;;;;;;5.95;1.13;;;21.30;59.60;;;;;;4997427;28;20046;-45
2022/07/27 11:34:03;;;;;;;7.07;0.85;;;21.70;54.50;;;;;;4995174;28;20093;-47
2022/07/27 11:36:49;;;;;;;3.35;0.80;;;19.50;52.20;;;;;;4995389;28;20038;-45
2022/07/27 11:39:24;;;;;;;5.50;0.70;;;21.40;57.70;;;;;;4976824;28;20113;-47
2022/07/27 11:42:01;;;;;;;5.75;0.70;;;21.30;57.00;;;;;;4995877;28;20060;-46
2022/07/27 11:44:28;;;;;;;3.97;0.70;;;21.20;62.30;;;;;;4994788;28;20485;-44
2022/07/27 11:46:56;;;;;;;4.10;0.70;;;21.80;62.50;;;;;;4998167;28;20048;-47
2022/07/27 11:49:30;;;;;;;3.30;0.70;;;23.90;61.10;;;;;;4979171;28;20053;-43
2022/07/27 11:52:07;;;;;;;5.07;0.77;;;23.80;62.40;;;;;;4997668;28;20037;-46
2022/07/27 11:54:40;;;;;;;4.13;0.85;;;22.50;60.20;;;;;;4995857;28;20049;-49
2022/07/27 11:57:09;;;;;;;6.55;0.90;;;21.80;62.20;;;;;;4996032;28;20128;-46
2022/07/27 11:59:36;;;;;;;2.38;0.70;;;21.50;62.50;;;;;;4995409;28;20052;-44
2022/07/27 12:02:13;;;;;;;4.80;0.93;;;22.50;74.10;;;;;;4995056;28;20046;-45
2022/07/27 12:04:40;;;;;;;3.88;0.80;;;20.60;68.30;;;;;;4995381;28;20069;-45
2022/07/27 12:07:20;;;;;;;5.30;0.60;;;20.60;60.90;;;;;;4995265;28;20046;-48
2022/07/27 12:09:51;;;;;;;5.13;0.65;;;20.20;57.10;;;;;;4994876;28;20529;-46
2022/07/27 12:12:24;;;;;;;2.65;0.60;;;20.20;58.50;;;;;;4996195;28;20042;-46
2022/07/27 12:14:57;;;;;;;4.07;0.90;;;20.30;59.80;;;;;;4994138;28;20061;-45
2022/07/27 12:17:29;;;;;;;4.97;0.90;;;20.00;60.30;;;;;;4994473;28;20645;-44
2022/07/27 12:20:04;;;;;;;;;;;20.20;66.40;;;;;;4995830;28;20092;-44
2022/07/27 12:22:31;;;;;;;4.00;0.85;;;20.70;66.00;;;;;;4995536;28;20386;-49
2022/07/27 12:24:58;;;;;;;3.95;1.02;;;21.20;64.20;;;;;;4994393;28;20096;-48
2022/07/27 12:27:27;;;;;;;5.47;0.82;;;21.10;63.80;;;;;;4993317;28;21079;-46
2022/07/27 12:29:57;;;;;;;10.02;0.70;;;20.80;60.00;;;;;;4994250;28;20060;-45
2022/07/27 12:32:23;;;;;;;4.22;0.80;;;20.80;96.90;;;;;;4993588;28;20424;-44
2022/07/27 12:34:49;;;;;;;4.97;0.77;;;21.40;97.20;;;;;;4994025;28;20660;-45
2022/07/27 12:37:15;;;;;;;4.25;0.85;;;20.60;95.60;;;;;;4993021;28;20048;-45
2022/07/27 12:39:42;;;;;;;8.88;1.45;;;20.60;95.60;;;;;;4996141;28;20152;-45
2022/07/27 12:42:09;;;;;;;4.05;1.15;;;20.80;95.60;;;;;;4994246;28;20789;-46
2022/07/27 12:44:37;;;;;;;7.20;1.00;;;20.60;95.30;;;;;;4997688;28;20199;-44
2022/07/27 12:50:20;;;;;;;3.30;0.75;;;20.40;96.90;;;;;;4994587;28;20129;-44
2022/07/27 12:52:52;;;;;;;3.55;0.60;;;20.20;96.40;;;;;;4992029;28;20132;-44
2022/07/27 12:55:19;;;;;;;4.00;0.70;;;22.40;96.50;;;;;;4992740;28;20053;-43
2022/07/27 12:57:46;;;;;;;4.07;0.63;;;20.30;96.40;;;;;;4992086;28;20042;-48
2022/07/27 13:00:15;;;;;;;4.03;0.75;;;20.60;96.30;;;;;;4994365;28;20052;-45